Unicom:                    122.8

AWOS:                  118.275

Elevation           1458’ MSL

TPA:                   2500’ MSL

06/24:         5003’ L   75’ W

PAPI:       06/Left     24/Left

(Operate lights on unicom freq.)

Traffic Pattern: Left

Beacon: Sunset to Sunrise

Windsock: yes, lighted

Segmented Circle: No

 

Cleveland Center: 126.72/291.65

FSS: Altoona

[Source: ADDS]
METAR
KFKL 281056Z AUTO VRB06KT 9SM -SN FEW024 OVC033 M09/M11 A3025 RMK AO2 SNE06B50 SLP271 P0000 T10891111 FZRANO =
KFKL 280520Z 2806/2906 33009KT 6SM -SN BKN022 FM280800 33009KT 6SM -SN BKN015 FM281000 33009G18KT P6SM BKN015
TAF
KFKL 280520Z 2806/2906 33009KT 6SM -SN BKN022 FM280800 33009KT 6SM -SN BKN015 FM281000 33009G18KT P6SM BKN015 =
[Source: ADDS]
METAR
KDUJ 281053Z AUTO 33010KT 10SM OVC027 M08/M13 A3017 RMK AO2 SLP243 T10831133 =
KDUJ 280520Z 2806/2906 33008KT P6SM BKN022 FM280700 33009G18KT P6SM OVC015 FM282200 31012G20KT P6SM SCT025
TAF
KDUJ 280520Z 2806/2906 33008KT P6SM BKN022 FM280700 33009G18KT P6SM OVC015 FM282200 31012G20KT P6SM SCT025 =

Information.  


[Source: ADDS]
METAR
KFKL 281056Z AUTO VRB06KT 9SM -SN FEW024 OVC033 M09/M11 A3025 RMK AO2 SNE06B50 SLP271 P0000 T10891111 FZRANO =
KFKL 280520Z 2806/2906 33009KT 6SM -SN BKN022 FM280800 33009KT 6SM -SN BKN015 FM281000 33009G18KT P6SM BKN015
TAF
KFKL 280520Z 2806/2906 33009KT 6SM -SN BKN022 FM280800 33009KT 6SM -SN BKN015 FM281000 33009G18KT P6SM BKN015 =
[Source: ADDS]
METAR
KDUJ 281053Z AUTO 33010KT 10SM OVC027 M08/M13 A3017 RMK AO2 SLP243 T10831133 =
KDUJ 280520Z 2806/2906 33008KT P6SM BKN022 FM280700 33009G18KT P6SM OVC015 FM282200 31012G20KT P6SM SCT025
TAF
KDUJ 280520Z 2806/2906 33008KT P6SM BKN022 FM280700 33009G18KT P6SM OVC015 FM282200 31012G20KT P6SM SCT025 =